KFOK/FOK METAR and TAF weather

Enter ICAO airport designator
Station Type Date Time Source
KFOK METAR 2020/09/19 04:53 UTC NOAA

KFOK 190453Z AUTO 35013G21KT 10SM CLR 12/03 A3015 RMK AO2 SLP210 T01220028 402060122


Station Type Date Time Source
KFOK Decoded METAR 2020/09/19 04:53 UTC NOAA

THE GABRESKI AIRPORT, NY, United States (KFOK) 40-51N 072-37W 33M
Sep 19, 2020 - 12:53 AM EDT / 2020.09.19 0453 UTC
Wind: from the N (350 degrees) at 15 MPH (13 KT) gusting to 24 MPH (21 KT):0
Visibility: 10 mile(s):0
Sky conditions: clear
Temperature: 54.0 F (12.2 C)
Dew Point: 37.0 F (2.8 C)
Relative Humidity: 52%
Pressure (altimeter): 30.15 in. Hg (1020 hPa)
ob: KFOK 190453Z AUTO 35013G21KT 10SM CLR 12/03 A3015 RMK AO2 SLP210 T01220028 402060122
cycle: 5

Station Type Date Time Source
KFOK TAF UTC NOAA

Error!

Example: see airport list